createdAt,value
2022-12-03T00:01:08.293Z,100087.94
2022-12-03T00:03:35.231Z,100085.69
2022-12-03T00:06:02.105Z,100076.69
2022-12-03T00:08:28.943Z,100088.50
2022-12-03T00:10:55.755Z,100084.28
2022-12-03T00:13:22.578Z,100080.09
2022-12-03T00:15:49.385Z,100075.50
2022-12-03T00:18:16.247Z,100077.44
2022-12-03T00:20:43.084Z,100077.19
2022-12-03T00:23:09.862Z,100074.31
2022-12-03T00:25:36.651Z,100084.84
2022-12-03T00:28:03.490Z,100074.41
2022-12-03T00:30:30.286Z,100072.69
2022-12-03T00:32:57.154Z,100067.53
2022-12-03T00:35:23.952Z,100076.38
2022-12-03T00:37:50.749Z,100078.06
2022-12-03T00:40:17.587Z,100074.88
2022-12-03T00:42:44.361Z,100075.19
2022-12-03T00:45:11.116Z,100068.31
2022-12-03T00:47:37.912Z,100074.75
2022-12-03T00:50:05.683Z,100069.69
2022-12-03T00:52:32.452Z,100069.25
2022-12-03T00:54:59.307Z,100069.06
2022-12-03T00:57:27.095Z,100065.63
2022-12-03T00:59:53.874Z,100063.59
2022-12-03T01:02:20.775Z,100064.78
2022-12-03T01:04:47.743Z,100064.44
2022-12-03T01:07:14.587Z,100069.69
2022-12-03T01:09:41.375Z,100068.00
2022-12-03T01:12:08.227Z,100068.72
2022-12-03T01:14:35.089Z,100068.97
2022-12-03T01:17:01.861Z,100071.66
2022-12-03T01:19:29.066Z,100072.84
2022-12-03T01:21:55.927Z,100075.53
2022-12-03T01:24:22.724Z,100071.19
2022-12-03T01:26:49.576Z,100075.53
2022-12-03T01:29:16.358Z,100074.13
2022-12-03T01:31:43.248Z,100070.69
2022-12-03T01:34:10.096Z,100079.06
2022-12-03T01:36:36.925Z,100077.66
2022-12-03T01:39:04.042Z,100085.81
2022-12-03T01:41:31.974Z,100085.81
2022-12-03T01:43:59.453Z,100083.69
2022-12-03T01:46:34.833Z,100087.13
2022-12-03T01:49:01.691Z,100089.25
2022-12-03T01:51:29.270Z,100079.69
2022-12-03T01:53:56.297Z,100084.31
2022-12-03T01:56:23.110Z,100083.03
2022-12-03T01:58:49.904Z,100089.66
2022-12-03T02:01:18.481Z,100079.81
2022-12-03T02:03:45.920Z,100082.25
2022-12-03T02:06:19.871Z,100087.53
2022-12-03T02:08:47.914Z,100087.63
2022-12-03T02:11:31.654Z,100085.38
2022-12-03T02:14:18.299Z,100083.03
2022-12-03T02:16:45.726Z,100087.44
2022-12-03T02:19:25.117Z,100086.25
2022-12-03T02:22:10.294Z,100086.38
2022-12-03T02:24:38.841Z,100082.38
2022-12-03T02:27:06.039Z,100086.47
2022-12-03T02:29:33.861Z,100084.53
2022-12-03T02:32:00.752Z,100081.94
2022-12-03T02:34:33.454Z,100087.00
2022-12-03T02:37:00.703Z,100083.88
2022-12-03T02:39:27.608Z,100082.19
2022-12-03T02:41:54.426Z,100082.84
2022-12-03T02:44:21.318Z,100080.88
2022-12-03T02:46:48.143Z,100079.81
2022-12-03T02:49:14.979Z,100082.38
2022-12-03T02:51:41.801Z,100079.91
2022-12-03T02:54:08.553Z,100083.91
2022-12-03T02:56:35.418Z,100084.31
2022-12-03T02:59:04.030Z,100080.78
2022-12-03T03:01:30.908Z,100084.31
2022-12-03T03:03:58.264Z,100076.16
2022-12-03T03:06:25.180Z,100079.59
2022-12-03T03:08:52.276Z,100078.97
2022-12-03T03:11:19.083Z,100080.47
2022-12-03T03:13:45.968Z,100078.09
2022-12-03T03:16:12.961Z,100084.84
2022-12-03T03:18:40.252Z,100079.16
2022-12-03T03:21:07.234Z,100080.13
2022-12-03T03:23:34.493Z,100073.78
2022-12-03T03:26:02.934Z,100075.75
2022-12-03T03:28:30.591Z,100074.03
2022-12-03T03:30:58.708Z,100080.34
2022-12-03T03:33:25.619Z,100070.69
2022-12-03T03:35:53.222Z,100075.41
2022-12-03T03:38:21.049Z,100075.41
2022-12-03T03:40:48.915Z,100070.38
2022-12-03T03:43:15.827Z,100064.25
2022-12-03T03:45:43.256Z,100066.28
2022-12-03T03:48:10.542Z,100067.91
2022-12-03T03:50:37.472Z,100066.28
2022-12-03T03:53:04.721Z,100065.22
2022-12-03T03:55:31.943Z,100054.34
2022-12-03T03:57:58.896Z,100055.00
2022-12-03T04:00:25.779Z,100047.47
2022-12-03T04:02:53.748Z,100057.69
2022-12-03T04:05:22.095Z,100042.34
2022-12-03T04:07:48.950Z,100044.59
2022-12-03T04:10:16.266Z,100046.28
2022-12-03T04:12:43.045Z,100048.03
2022-12-03T04:15:09.921Z,100041.06
2022-12-03T04:17:36.735Z,100036.00
2022-12-03T04:20:03.767Z,100037.72
2022-12-03T04:22:30.620Z,100035.13
2022-12-03T04:24:57.403Z,100035.34
2022-12-03T04:27:24.211Z,100029.66
2022-12-03T04:29:51.024Z,100034.94
2022-12-03T04:32:17.823Z,100028.59
2022-12-03T04:34:44.619Z,100034.47
2022-12-03T04:37:11.536Z,100031.91
2022-12-03T04:39:38.569Z,100030.41
2022-12-03T04:42:05.406Z,100038.56
2022-12-03T04:44:32.747Z,100033.75
2022-12-03T04:47:00.118Z,100026.47
2022-12-03T04:49:26.942Z,100035.66
2022-12-03T04:51:53.700Z,100027.94
2022-12-03T04:54:21.495Z,100032.56
2022-12-03T04:56:48.398Z,100034.06
2022-12-03T04:59:16.577Z,100034.06
2022-12-03T05:01:43.932Z,100036.75
2022-12-03T05:04:11.336Z,100036.94
2022-12-03T05:06:38.173Z,100037.31
2022-12-03T05:09:06.497Z,100035.25
2022-12-03T05:11:33.596Z,100037.94
2022-12-03T05:14:00.387Z,100040.63
2022-12-03T05:16:28.922Z,100038.81
2022-12-03T05:18:55.774Z,100035.03
2022-12-03T05:21:22.719Z,100033.22
2022-12-03T05:23:49.839Z,100031.94
2022-12-03T05:26:16.708Z,100038.03
2022-12-03T05:28:43.561Z,100030.63
2022-12-03T05:31:10.400Z,100030.53
2022-12-03T05:33:42.458Z,100038.69
2022-12-03T05:36:11.034Z,100028.59
2022-12-03T05:38:37.844Z,100035.56
2022-12-03T05:41:04.710Z,100029.00
2022-12-03T05:43:31.557Z,100027.41
2022-12-03T05:45:58.433Z,100037.06
2022-12-03T05:48:25.246Z,100036.75
2022-12-03T05:50:54.519Z,100042.84
2022-12-03T05:53:21.483Z,100038.66
2022-12-03T05:55:48.301Z,100038.41
2022-12-03T05:58:15.086Z,100046.81
2022-12-03T06:00:43.052Z,100045.94
2022-12-03T06:03:10.632Z,100049.31
2022-12-03T06:05:37.696Z,100045.13
2022-12-03T06:08:04.590Z,100046.16
2022-12-03T06:10:31.507Z,100044.66
2022-12-03T06:12:58.280Z,100035.66
2022-12-03T06:15:25.067Z,100035.09
2022-12-03T06:17:51.895Z,100036.75
2022-12-03T06:20:20.283Z,100038.44
2022-12-03T06:22:47.393Z,100034.91
2022-12-03T06:25:14.370Z,100041.25
2022-12-03T06:27:41.190Z,100041.97
2022-12-03T06:30:08.445Z,100038.03
2022-12-03T06:32:35.478Z,100045.31
2022-12-03T06:35:02.314Z,100033.09
2022-12-03T06:37:29.130Z,100039.31
2022-12-03T06:39:55.915Z,100047.91
2022-12-03T06:42:22.724Z,100036.28
2022-12-03T06:44:49.503Z,100046.41
2022-12-03T06:47:16.316Z,100041.66
2022-12-03T06:49:43.113Z,100046.72
2022-12-03T06:52:09.910Z,100040.31
2022-12-03T06:54:36.699Z,100039.44
2022-12-03T06:57:03.529Z,100040.16
2022-12-03T06:59:30.334Z,100037.47
2022-12-03T07:01:57.149Z,100033.31
2022-12-03T07:04:23.974Z,100043.09
2022-12-03T07:06:50.771Z,100035.56
2022-12-03T07:09:17.570Z,100030.63
2022-12-03T07:11:44.360Z,100048.91
2022-12-03T07:14:11.348Z,100044.59
2022-12-03T07:16:39.115Z,100034.41
2022-12-03T07:19:06.350Z,100039.31
2022-12-03T07:21:33.159Z,100037.50
2022-12-03T07:24:00.147Z,100037.31
2022-12-03T07:26:26.970Z,100045.47
2022-12-03T07:28:55.651Z,100047.28
2022-12-03T07:31:22.680Z,100044.47
2022-12-03T07:33:49.448Z,100044.03
2022-12-03T07:36:16.262Z,100051.34
2022-12-03T07:38:43.098Z,100048.78
2022-12-03T07:41:09.907Z,100053.59
2022-12-03T07:43:36.730Z,100054.97
2022-12-03T07:46:03.535Z,100052.84
2022-12-03T07:48:30.372Z,100039.63
2022-12-03T07:50:58.387Z,100042.75
2022-12-03T07:53:25.200Z,100037.00
2022-12-03T07:55:52.016Z,100036.81
2022-12-03T07:58:18.802Z,100033.03
2022-12-03T08:00:45.656Z,100039.06
2022-12-03T08:03:12.521Z,100037.97
2022-12-03T08:05:39.304Z,100032.72
2022-12-03T08:08:06.408Z,100026.16
2022-12-03T08:10:33.338Z,100033.72
2022-12-03T08:13:00.176Z,100033.28
2022-12-03T08:15:30.186Z,100034.00
2022-12-03T08:18:01.767Z,100034.88
2022-12-03T08:20:31.510Z,100042.38
2022-12-03T08:22:58.821Z,100037.31
2022-12-03T08:25:30.401Z,100038.94
2022-12-03T08:28:02.537Z,100041.63
2022-12-03T08:30:29.333Z,100051.16
2022-12-03T08:32:57.785Z,100045.59
2022-12-03T08:35:27.074Z,100042.38
2022-12-03T08:38:09.711Z,100041.81
2022-12-03T08:40:40.749Z,100035.34
2022-12-03T08:43:13.048Z,100038.03
2022-12-03T08:45:41.194Z,100041.28
2022-12-03T08:48:20.290Z,100041.03
2022-12-03T08:50:47.302Z,100042.47
2022-12-03T08:53:14.124Z,100036.69
2022-12-03T08:55:48.125Z,100040.38
2022-12-03T08:58:22.953Z,100045.38
2022-12-03T09:00:56.831Z,100036.25
2022-12-03T09:03:23.826Z,100038.59
2022-12-03T09:05:50.666Z,100048.78
2022-12-03T09:08:17.536Z,100041.13
2022-12-03T09:10:44.417Z,100049.75
2022-12-03T09:13:11.221Z,100044.00
2022-12-03T09:15:38.053Z,100048.13
2022-12-03T09:18:04.901Z,100043.97
2022-12-03T09:20:31.702Z,100042.88
2022-12-03T09:22:58.482Z,100042.00
2022-12-03T09:25:25.260Z,100031.25
2022-12-03T09:27:52.041Z,100043.97
2022-12-03T09:30:18.839Z,100043.31
2022-12-03T09:32:45.615Z,100043.56
2022-12-03T09:35:12.403Z,100027.53
2022-12-03T09:37:39.263Z,100034.94
2022-12-03T09:40:06.433Z,100027.44
2022-12-03T09:42:33.833Z,100028.47
2022-12-03T09:45:01.717Z,100023.50
2022-12-03T09:47:30.626Z,100026.84
2022-12-03T09:49:57.639Z,100016.22
2022-12-03T09:52:27.062Z,100010.03
2022-12-03T09:54:54.746Z,100019.81
2022-12-03T09:57:21.859Z,100018.06
2022-12-03T09:59:48.632Z,100015.25
2022-12-03T10:02:18.187Z,100018.56
2022-12-03T10:04:45.246Z,100016.72
2022-12-03T10:07:12.247Z,100011.59
2022-12-03T10:09:39.050Z,100016.41
2022-12-03T10:12:05.881Z,100016.41
2022-12-03T10:14:32.731Z,100012.78
2022-12-03T10:16:59.647Z,100015.00
2022-12-03T10:19:28.657Z,100014.16
2022-12-03T10:21:55.486Z,100008.91
2022-12-03T10:24:22.313Z,100013.56
2022-12-03T10:26:50.568Z,100000.72
2022-12-03T10:29:37.617Z,100001.59
2022-12-03T10:32:08.893Z,99996.56
2022-12-03T10:34:35.668Z,99990.59
2022-12-03T10:37:09.820Z,99993.19
2022-12-03T10:39:56.252Z,99987.81
2022-12-03T10:42:24.044Z,99975.63
2022-12-03T10:45:06.313Z,99975.91
2022-12-03T10:47:33.270Z,99972.34
2022-12-03T10:50:05.545Z,99961.63
2022-12-03T10:52:32.600Z,99962.06
2022-12-03T10:54:59.391Z,99966.13
2022-12-03T10:57:26.478Z,99960.66
2022-12-03T10:59:53.387Z,99946.72
2022-12-03T11:02:24.007Z,99952.56
2022-12-03T11:04:51.757Z,99954.94
2022-12-03T11:07:19.926Z,99955.94
2022-12-03T11:09:50.803Z,99952.88
2022-12-03T11:12:25.424Z,99944.91
2022-12-03T11:14:52.577Z,99946.41
2022-12-03T11:17:38.381Z,99953.84
2022-12-03T11:20:24.837Z,99948.25
2022-12-03T11:22:52.510Z,99949.94
2022-12-03T11:25:25.281Z,99952.50
2022-12-03T11:28:11.025Z,99959.34
2022-12-03T11:30:50.156Z,99950.69
2022-12-03T11:33:27.401Z,99941.00
2022-12-03T11:36:03.314Z,99946.59
2022-12-03T11:38:52.918Z,99946.34
2022-12-03T11:41:20.688Z,99938.16
2022-12-03T11:43:53.580Z,99940.00
2022-12-03T11:46:25.258Z,99933.66
2022-12-03T11:48:53.755Z,99939.00
2022-12-03T11:51:24.918Z,99923.84
2022-12-03T11:53:52.930Z,99925.19
2022-12-03T11:56:22.322Z,99924.09
2022-12-03T11:58:56.941Z,99922.38
2022-12-03T12:01:36.925Z,99917.41
2022-12-03T12:04:06.222Z,99911.75
2022-12-03T12:06:43.493Z,99904.41
2022-12-03T12:09:10.823Z,99899.72
2022-12-03T12:11:38.573Z,99896.19
2022-12-03T12:14:06.519Z,99894.41
2022-12-03T12:16:39.414Z,99887.53
2022-12-03T12:19:24.914Z,99888.50
2022-12-03T12:21:51.718Z,99882.63
2022-12-03T12:24:31.322Z,99884.72
2022-12-03T12:27:07.305Z,99884.81
2022-12-03T12:29:34.609Z,99885.06
2022-12-03T12:32:10.682Z,99870.38
2022-12-03T12:34:41.326Z,99869.78
2022-12-03T12:37:20.335Z,99867.44
2022-12-03T12:39:47.270Z,99869.38
2022-12-03T12:42:29.255Z,99871.84
2022-12-03T12:45:10.561Z,99874.19
2022-12-03T12:47:37.435Z,99881.66
2022-12-03T12:50:11.154Z,99879.56
2022-12-03T12:52:46.842Z,99878.47
2022-12-03T12:55:13.674Z,99878.00
2022-12-03T12:57:40.473Z,99875.91
2022-12-03T13:00:07.798Z,99876.41
2022-12-03T13:02:37.691Z,99872.38
2022-12-03T13:05:04.718Z,99876.88
2022-12-03T13:07:31.679Z,99875.66
2022-12-03T13:09:59.977Z,99878.09
2022-12-03T13:12:26.764Z,99873.59
2022-12-03T13:14:58.227Z,99878.97
2022-12-03T13:17:25.122Z,99874.78
2022-12-03T13:19:59.316Z,99881.75
2022-12-03T13:22:30.394Z,99882.25
2022-12-03T13:24:57.190Z,99881.75
2022-12-03T13:27:28.427Z,99873.69
2022-12-03T13:30:01.147Z,99873.31
2022-12-03T13:32:31.034Z,99877.00
2022-12-03T13:35:09.875Z,99872.22
2022-12-03T13:37:37.193Z,99873.22
2022-12-03T13:40:19.107Z,99875.78
2022-12-03T13:42:46.038Z,99870.28
2022-12-03T13:45:15.590Z,99878.47
2022-12-03T13:47:44.340Z,99882.13
2022-12-03T13:50:25.011Z,99882.88
2022-12-03T13:52:51.866Z,99876.13
2022-12-03T13:55:25.218Z,99875.50
2022-12-03T13:57:52.407Z,99878.59
2022-12-03T14:00:19.602Z,99875.13
2022-12-03T14:02:49.713Z,99876.50
2022-12-03T14:05:19.353Z,99876.34
2022-12-03T14:07:46.728Z,99874.66
2022-12-03T14:10:14.039Z,99882.06
2022-12-03T14:12:40.849Z,99871.69
2022-12-03T14:15:08.160Z,99877.47
2022-12-03T14:17:35.044Z,99873.06
2022-12-03T14:20:02.052Z,99865.59
2022-12-03T14:22:29.469Z,99864.28
2022-12-03T14:24:56.702Z,99871.25
2022-12-03T14:27:23.958Z,99867.44
2022-12-03T14:29:51.006Z,99867.19
2022-12-03T14:32:17.876Z,99857.53
2022-12-03T14:34:44.790Z,99862.38
2022-12-03T14:37:11.668Z,99858.50
2022-12-03T14:39:38.493Z,99851.63
2022-12-03T14:42:05.370Z,99859.72
2022-12-03T14:44:32.239Z,99848.22
2022-12-03T14:46:59.016Z,99849.56
2022-12-03T14:49:25.838Z,99845.63
2022-12-03T14:51:52.691Z,99849.66
2022-12-03T14:54:19.532Z,99849.53
2022-12-03T14:56:46.333Z,99838.16
2022-12-03T14:59:13.403Z,99837.53
2022-12-03T15:01:47.993Z,99834.47
2022-12-03T15:04:18.969Z,99833.88
2022-12-03T15:06:45.805Z,99841.72
2022-12-03T15:09:12.866Z,99842.91
2022-12-03T15:11:45.800Z,99842.41
2022-12-03T15:14:13.294Z,99838.25
2022-12-03T15:16:40.196Z,99850.00
2022-12-03T15:19:07.077Z,99849.88
2022-12-03T15:21:33.909Z,99839.34
2022-12-03T15:24:01.388Z,99844.97
2022-12-03T15:26:28.190Z,99846.22
2022-12-03T15:28:55.020Z,99846.31
2022-12-03T15:31:21.854Z,99843.41
2022-12-03T15:33:48.710Z,99855.16
2022-12-03T15:36:15.639Z,99843.63
2022-12-03T15:38:42.490Z,99844.50
2022-12-03T15:41:09.387Z,99850.75
2022-12-03T15:43:36.378Z,99851.25
2022-12-03T15:46:03.203Z,99853.28
2022-12-03T15:48:30.004Z,99842.91
2022-12-03T15:50:56.760Z,99845.22
2022-12-03T15:53:24.583Z,99849.78
2022-12-03T15:55:51.392Z,99848.63
2022-12-03T15:58:18.296Z,99859.88
2022-12-03T16:00:45.243Z,99852.34
2022-12-03T16:03:12.325Z,99856.38
2022-12-03T16:05:39.541Z,99858.22
2022-12-03T16:08:06.548Z,99850.16
2022-12-03T16:10:33.724Z,99853.06
2022-12-03T16:13:00.882Z,99852.84
2022-12-03T16:15:28.356Z,99844.50
2022-12-03T16:17:55.384Z,99851.13
2022-12-03T16:20:22.318Z,99847.56
2022-12-03T16:22:49.174Z,99849.53
2022-12-03T16:25:16.060Z,99849.16
2022-12-03T16:27:42.852Z,99856.63
2022-12-03T16:30:09.972Z,99852.63
2022-12-03T16:32:37.046Z,99854.66
2022-12-03T16:35:04.050Z,99856.88
2022-12-03T16:37:30.836Z,99858.00
2022-12-03T16:39:57.727Z,99860.31
2022-12-03T16:42:24.585Z,99851.91
2022-12-03T16:44:51.411Z,99851.25
2022-12-03T16:47:18.269Z,99847.84
2022-12-03T16:49:45.103Z,99852.00
2022-12-03T16:52:11.869Z,99843.91
2022-12-03T16:54:38.657Z,99835.72
2022-12-03T16:57:05.455Z,99833.28
2022-12-03T16:59:32.287Z,99843.41
2022-12-03T17:01:59.144Z,99840.13
2022-12-03T17:04:26.026Z,99833.16
2022-12-03T17:06:52.801Z,99841.25
2022-12-03T17:09:19.611Z,99835.28
2022-12-03T17:11:46.427Z,99834.41
2022-12-03T17:14:13.207Z,99835.38
2022-12-03T17:16:40.004Z,99831.84
2022-12-03T17:19:06.789Z,99828.28
2022-12-03T17:21:35.163Z,99835.75
2022-12-03T17:24:02.118Z,99831.38
2022-12-03T17:26:29.000Z,99834.91
2022-12-03T17:28:55.813Z,99831.34
2022-12-03T17:31:22.707Z,99827.06
2022-12-03T17:33:49.640Z,99823.16
2022-12-03T17:36:16.394Z,99815.94
2022-12-03T17:38:43.274Z,99819.84
2022-12-03T17:41:10.077Z,99812.25
2022-12-03T17:43:36.893Z,99803.47
2022-12-03T17:46:03.756Z,99808.81
2022-12-03T17:48:30.534Z,99809.91
2022-12-03T17:50:57.337Z,99814.47
2022-12-03T17:53:24.291Z,99810.19
2022-12-03T17:55:51.069Z,99803.84
2022-12-03T17:58:17.963Z,99810.56
2022-12-03T18:00:44.771Z,99804.34
2022-12-03T18:03:11.546Z,99805.81
2022-12-03T18:05:38.394Z,99800.19
2022-12-03T18:08:05.652Z,99809.34
2022-12-03T18:10:32.487Z,99800.56
2022-12-03T18:13:01.863Z,99803.50
2022-12-03T18:15:29.600Z,99806.44
2022-12-03T18:17:56.370Z,99803.97
2022-12-03T18:20:23.185Z,99803.84
2022-12-03T18:22:49.996Z,99799.94
2022-12-03T18:25:16.810Z,99797.13
2022-12-03T18:27:45.008Z,99807.88
2022-12-03T18:30:12.064Z,99805.28
2022-12-03T18:32:38.920Z,99810.22
2022-12-03T18:35:06.013Z,99812.41
2022-12-03T18:37:32.963Z,99810.81
2022-12-03T18:40:00.388Z,99807.38
2022-12-03T18:42:27.286Z,99807.75
2022-12-03T18:44:55.226Z,99812.28
2022-12-03T18:47:27.101Z,99799.56
2022-12-03T18:49:54.264Z,99811.31
2022-12-03T18:52:22.115Z,99807.25
2022-12-03T18:54:49.102Z,99810.06
2022-12-03T18:57:16.222Z,99809.84
2022-12-03T18:59:43.105Z,99803.72
2022-12-03T19:02:26.704Z,99798.81
2022-12-03T19:05:01.805Z,99810.56
2022-12-03T19:07:28.770Z,99804.47
2022-12-03T19:09:55.958Z,99807.25
2022-12-03T19:12:22.875Z,99798.97
2022-12-03T19:14:49.684Z,99803.59
2022-12-03T19:17:16.515Z,99807.97
2022-12-03T19:19:43.334Z,99796.13
2022-12-03T19:22:10.111Z,99804.69
2022-12-03T19:24:36.902Z,99803.59
2022-12-03T19:27:03.866Z,99806.53
2022-12-03T19:29:30.677Z,99799.53
2022-12-03T19:31:57.605Z,99795.78
2022-12-03T19:34:24.474Z,99791.13
2022-12-03T19:36:52.416Z,99794.91
2022-12-03T19:39:19.299Z,99791.38
2022-12-03T19:41:46.087Z,99793.09
2022-12-03T19:44:14.098Z,99797.38
2022-12-03T19:46:41.299Z,99791.03
2022-12-03T19:49:08.410Z,99793.09
2022-12-03T19:51:36.798Z,99796.03
2022-12-03T19:54:04.659Z,99791.84
2022-12-03T19:56:31.524Z,99787.09
2022-12-03T19:58:58.632Z,99790.16
2022-12-03T20:01:26.863Z,99793.47
2022-12-03T20:03:56.503Z,99790.66
2022-12-03T20:06:25.066Z,99789.44
2022-12-03T20:09:02.872Z,99794.53
2022-12-03T20:11:31.089Z,99795.53
2022-12-03T20:13:59.570Z,99788.34
2022-12-03T20:16:27.365Z,99784.66
2022-12-03T20:18:58.818Z,99783.41
2022-12-03T20:21:25.854Z,99789.66
2022-12-03T20:23:52.939Z,99793.94
2022-12-03T20:26:20.672Z,99789.44
2022-12-03T20:28:48.047Z,99784.53
2022-12-03T20:31:16.216Z,99786.25
2022-12-03T20:33:44.649Z,99787.50
2022-12-03T20:36:12.532Z,99779.28
2022-12-03T20:38:39.453Z,99775.34
2022-12-03T20:41:10.486Z,99778.88
2022-12-03T20:43:37.612Z,99773.75
2022-12-03T20:46:11.877Z,99779.41
2022-12-03T20:48:38.973Z,99772.94
2022-12-03T20:51:06.704Z,99778.31
2022-12-03T20:53:33.778Z,99769.03
2022-12-03T20:56:01.268Z,99763.16
2022-12-03T20:58:29.052Z,99766.84
2022-12-03T21:01:10.035Z,99767.44
2022-12-03T21:03:39.330Z,99762.66
2022-12-03T21:06:06.534Z,99767.19
2022-12-03T21:08:40.907Z,99757.28
2022-12-03T21:11:09.086Z,99755.94
2022-12-03T21:13:35.893Z,99768.28
2022-12-03T21:16:04.780Z,99768.03
2022-12-03T21:18:31.613Z,99746.91
2022-12-03T21:20:59.479Z,99754.13
2022-12-03T21:23:26.821Z,99745.78
2022-12-03T21:25:53.662Z,99747.41
2022-12-03T21:28:24.814Z,99744.34
2022-12-03T21:30:51.927Z,99743.34
2022-12-03T21:33:19.272Z,99738.72
2022-12-03T21:35:46.076Z,99745.44
2022-12-03T21:38:12.896Z,99749.56
2022-12-03T21:40:39.705Z,99744.34
2022-12-03T21:43:06.500Z,99750.22
2022-12-03T21:45:33.305Z,99758.03
2022-12-03T21:48:00.225Z,99761.47
2022-12-03T21:50:27.112Z,99757.78
2022-12-03T21:52:53.874Z,99741.66
2022-12-03T21:55:20.708Z,99744.72
2022-12-03T21:57:47.499Z,99744.34
2022-12-03T22:00:14.497Z,99750.09
2022-12-03T22:02:41.392Z,99748.41
2022-12-03T22:05:09.998Z,99752.44
2022-12-03T22:07:37.517Z,99742.53
2022-12-03T22:10:05.604Z,99746.19
2022-12-03T22:12:32.542Z,99752.91
2022-12-03T22:14:59.331Z,99748.25
2022-12-03T22:17:26.633Z,99752.06
2022-12-03T22:19:53.675Z,99744.34
2022-12-03T22:22:20.635Z,99743.13
2022-12-03T22:24:47.431Z,99735.66
2022-12-03T22:27:14.474Z,99733.25
2022-12-03T22:29:41.245Z,99740.56
2022-12-03T22:32:08.039Z,99732.84
2022-12-03T22:34:34.860Z,99729.81
2022-12-03T22:37:01.647Z,99728.13
2022-12-03T22:39:28.468Z,99728.94
2022-12-03T22:41:55.285Z,99725.53
2022-12-03T22:44:22.103Z,99724.06
2022-12-03T22:46:49.021Z,99734.94
2022-12-03T22:49:15.936Z,99724.91
2022-12-03T22:51:45.365Z,99721.38
2022-12-03T22:54:12.703Z,99729.44
2022-12-03T22:56:39.676Z,99717.94
2022-12-03T22:59:06.519Z,99717.72
2022-12-03T23:01:34.728Z,99715.78
2022-12-03T23:04:01.843Z,99716.97
2022-12-03T23:06:30.536Z,99707.81
2022-12-03T23:08:57.993Z,99710.25
2022-12-03T23:11:24.923Z,99715.16
2022-12-03T23:13:51.954Z,99721.13
2022-12-03T23:16:20.319Z,99704.63
2022-12-03T23:18:47.174Z,99714.16
2022-12-03T23:21:20.736Z,99710.38
2022-12-03T23:23:51.753Z,99707.81
2022-12-03T23:26:18.619Z,99702.94
2022-12-03T23:28:46.241Z,99706.09
2022-12-03T23:31:18.005Z,99706.81
2022-12-03T23:33:44.927Z,99704.88
2022-12-03T23:36:12.308Z,99685.56
2022-12-03T23:38:39.647Z,99678.72
2022-12-03T23:41:07.222Z,99681.66
2022-12-03T23:43:34.052Z,99684.47
2022-12-03T23:46:08.233Z,99685.22
2022-12-03T23:48:35.064Z,99675.41
2022-12-03T23:51:05.673Z,99672.50
2022-12-03T23:53:32.468Z,99676.28
2022-12-03T23:55:59.261Z,99675.78
2022-12-03T23:58:26.017Z,99667.97
